Terminal Aerodrome Forecast
Issued by NWS North Platte, NE

Home | Current Version | Previous Version | Text Only | Print | Product List | Glossary On
Versions: 1 2 3 4 5 6 7 8 9 10 11 12 13 14 15 16 17 18 19 20 21
000
FTUS43 KLBF 312300
TAFVTN
TAF
KVTN 312331Z 0100/0124 03013KT 1SM -SN BR OVC007
      TEMPO 0101/0105 1/2SM SN FZFG OVC005
     FM011000 35014G21KT 5SM -SN BR OVC012
     FM011100 35015G25KT P6SM OVC015
     FM012100 35015G23KT P6SM OVC030=

USA.gov is the U.S. government's official web portal to all federal, state and local government web resources and services.